»·PEaware :: SWA3488 KLAX-KLAS

SWA3488 :: KLAX-KLAS

FLIGHT INFORMATION

Flight Status: Arrived
Operator:
Southwest Airlines
More flights by this operator :: More flights under this callsign
Pilot: Cody B. (17747)
Aircraft: BOEING 737-800
(B738)
More flights by this aircraft type
Origin: KLAX Los Angeles Intl
United States
Destination: KLAS McCarran Intl
United States
More flights between these airports :: More routes between these airports
Route: ORCKA3 MISEN KEPEC6
File this flight plan on PilotEdge
Remarks:
Altitude:
(Current/Filed)
29,000ft
Speed:
(Current/Filed)
457kts
Departed: 23-Jun-18 11:18 AM
Arrived: 23-Jun-18 12:09 PM
Distance/Time
Traveled:
205nm/0:51
Distance/Time
To Go:
Arrived

Flight Plot

Page will automatically refresh every two minutes.

Flight plan parsing failed; only flown route is shown


Map Options




Map Legend


Flown Route
Filed Route
Departure Airport
Arrival Airport
Navaid (VOR, NDB)
Fix

Horizontal Profiles

Position Reports

Time Latitude Longitude Heading Altitude Ground
Speed
23-Jun-18 10:25 33.947888 -118.400699 222 115ft 0kts
23-Jun-18 10:26 33.947888 -118.400699 222 115ft 0kts
23-Jun-18 10:27 33.947888 -118.400699 222 115ft 0kts
23-Jun-18 10:28 33.947888 -118.400699 222 115ft 0kts
23-Jun-18 10:29 33.947888 -118.400699 222 115ft 0kts
23-Jun-18 10:30 33.947888 -118.400699 222 115ft 0kts
23-Jun-18 10:31 33.947888 -118.400699 222 115ft 0kts
23-Jun-18 10:32 33.947888 -118.400699 222 115ft 0kts
23-Jun-18 10:33 33.947888 -118.400699 222 115ft 0kts
23-Jun-18 10:34 33.947888 -118.400699 222 115ft 0kts
23-Jun-18 10:35 33.947888 -118.400699 222 115ft 0kts
23-Jun-18 10:36 33.947888 -118.400699 222 115ft 0kts
23-Jun-18 10:37 33.947888 -118.400699 222 115ft 0kts
23-Jun-18 10:38 33.947888 -118.400699 222 115ft 0kts
23-Jun-18 10:39 33.947888 -118.400699 222 115ft 0kts
23-Jun-18 10:40 33.947888 -118.400699 222 115ft 0kts
23-Jun-18 10:41 33.947888 -118.400699 222 115ft 0kts
23-Jun-18 10:42 33.947888 -118.400699 222 115ft 0kts
23-Jun-18 10:43 33.947888 -118.400699 222 115ft 0kts
23-Jun-18 10:44 33.947888 -118.400699 222 115ft 0kts
23-Jun-18 10:45 33.947888 -118.400699 222 115ft 0kts
23-Jun-18 10:46 33.947888 -118.400699 222 115ft 0kts
23-Jun-18 10:47 33.947888 -118.400699 222 115ft 0kts
23-Jun-18 10:48 33.947888 -118.400699 222 115ft 0kts
23-Jun-18 10:49 33.947888 -118.400699 222 115ft 0kts
23-Jun-18 10:50 33.947888 -118.400699 222 115ft 0kts
23-Jun-18 10:51 33.947888 -118.400699 222 115ft 0kts
23-Jun-18 10:52 33.947888 -118.400699 222 115ft 0kts
23-Jun-18 10:53 33.947888 -118.400699 222 115ft 0kts
23-Jun-18 10:54 33.947888 -118.400699 222 115ft 0kts
23-Jun-18 10:55 33.947888 -118.400699 222 115ft 0kts
23-Jun-18 10:56 33.947888 -118.400699 222 115ft 0kts
23-Jun-18 10:57 33.947888 -118.400699 222 115ft 0kts
23-Jun-18 10:58 33.947888 -118.400699 222 115ft 0kts
23-Jun-18 10:59 33.947888 -118.400699 222 115ft 0kts
23-Jun-18 11:00 33.947888 -118.400699 222 115ft 0kts
23-Jun-18 11:01 33.947888 -118.400699 222 115ft 0kts
23-Jun-18 11:02 33.947888 -118.400699 222 115ft 0kts
23-Jun-18 11:03 33.947888 -118.400699 222 115ft 0kts
23-Jun-18 11:04 33.947888 -118.400699 222 115ft 0kts
23-Jun-18 11:05 33.947888 -118.400699 222 115ft 0kts
23-Jun-18 11:06 33.947888 -118.400699 222 115ft 0kts
23-Jun-18 11:07 33.947888 -118.400699 222 115ft 0kts
23-Jun-18 11:08 33.948068 -118.400500 222 114ft 2kts
23-Jun-18 11:09 33.948037 -118.400019 2 113ft 0kts
23-Jun-18 11:10 33.947951 -118.400030 3 113ft 0kts
23-Jun-18 11:11 33.947951 -118.400030 3 113ft 0kts
23-Jun-18 11:12 33.947951 -118.400030 3 113ft 0kts
23-Jun-18 11:13 33.947965 -118.400029 3 113ft 1kts
23-Jun-18 11:14 33.948443 -118.400291 317 113ft 0kts
23-Jun-18 11:15 33.949047 -118.401314 288 115ft 2kts
23-Jun-18 11:16 33.949254 -118.401574 340 116ft 0kts
23-Jun-18 11:17 33.949570 -118.401658 350 116ft 6kts
23-Jun-18 11:18 33.949695 -118.406314 263 119ft 80kts
23-Jun-18 11:19 33.944239 -118.466133 255 1702ft 195kts
23-Jun-18 11:20 33.931757 -118.539386 262 4289ft 240kts
23-Jun-18 11:21 33.914960 -118.618357 219 7256ft 275kts
23-Jun-18 11:22 33.838400 -118.636236 186 10587ft 303kts
23-Jun-18 11:23 33.764897 -118.594222 103 13548ft 345kts
23-Jun-18 11:24 33.814416 -118.508285 26 16720ft 351kts
23-Jun-18 11:25 33.901396 -118.455711 25 18943ft 362kts
23-Jun-18 11:26 33.969969 -118.369424 54 18961ft 366kts
23-Jun-18 11:27 34.026992 -118.268575 53 18943ft 367kts
23-Jun-18 11:28 34.085524 -118.164931 54 21388ft 382kts
23-Jun-18 11:29 34.145147 -118.059147 54 22944ft 395kts
23-Jun-18 11:30 34.206656 -117.949712 54 23977ft 400kts
23-Jun-18 11:31 34.269552 -117.837454 53 26082ft 412kts
23-Jun-18 11:32 34.334064 -117.722056 53 27978ft 423kts
23-Jun-18 11:33 34.403001 -117.604070 51 28939ft 443kts
23-Jun-18 11:34 34.477540 -117.479073 51 28939ft 472kts
23-Jun-18 11:35 34.554010 -117.350293 51 28935ft 472kts
23-Jun-18 11:36 34.630077 -117.221702 52 28934ft 473kts
23-Jun-18 11:37 34.706459 -117.091979 52 28934ft 473kts
23-Jun-18 11:38 34.782963 -116.961784 52 28857ft 475kts
23-Jun-18 11:39 34.857564 -116.834187 51 28841ft 438kts
23-Jun-18 11:40 34.928752 -116.711949 52 28853ft 445kts
23-Jun-18 11:41 34.998877 -116.587687 53 27603ft 442kts
23-Jun-18 11:42 35.066845 -116.466705 52 25205ft 424kts
23-Jun-18 11:43 35.136753 -116.358093 42 23219ft 397kts
23-Jun-18 11:44 35.213948 -116.262137 43 21739ft 397kts
23-Jun-18 11:45 35.289960 -116.167067 43 20289ft 390kts
23-Jun-18 11:46 35.364688 -116.073188 43 18857ft 381kts
23-Jun-18 11:47 35.437723 -115.981096 43 17456ft 374kts
23-Jun-18 11:48 35.509726 -115.890038 44 16274ft 372kts
23-Jun-18 11:49 35.580455 -115.800283 44 14869ft 364kts
23-Jun-18 11:50 35.648386 -115.713737 45 13564ft 327kts
23-Jun-18 11:51 35.709291 -115.636035 46 13038ft 319kts
23-Jun-18 11:52 35.780047 -115.575582 5 13055ft 320kts
23-Jun-18 11:53 35.868338 -115.569419 1 13037ft 318kts
23-Jun-18 11:54 35.955451 -115.556390 31 13057ft 320kts
23-Jun-18 11:55 36.000808 -115.464435 68 11957ft 310kts
23-Jun-18 11:56 36.028030 -115.367840 89 10967ft 286kts
23-Jun-18 11:57 36.022670 -115.272250 96 9803ft 277kts
23-Jun-18 11:58 36.016223 -115.178859 97 8852ft 263kts
23-Jun-18 11:59 36.010431 -115.091483 98 8088ft 252kts
23-Jun-18 12:00 36.005310 -115.006585 97 8038ft 248kts
23-Jun-18 12:01 36.000256 -114.921421 97 8000ft 249kts
23-Jun-18 12:02 35.995226 -114.836123 93 7875ft 254kts
23-Jun-18 12:03 36.045058 -114.814154 301 6854ft 237kts
23-Jun-18 12:04 36.073110 -114.887825 275 5627ft 242kts
23-Jun-18 12:05 36.075299 -114.966695 266 4454ft 212kts
23-Jun-18 12:06 36.073554 -115.032255 269 3591ft 166kts
23-Jun-18 12:07 36.074163 -115.086632 264 2784ft 155kts
23-Jun-18 12:08 36.073588 -115.139190 266 2083ft 104kts
23-Jun-18 12:09 36.073957 -115.153515 297 2133ft 12kts
23-Jun-18 12:10 36.074631 -115.155026 299 2138ft 2kts
23-Jun-18 12:11 36.076306 -115.157309 313 2143ft 12kts
23-Jun-18 12:12 36.077743 -115.158220 359 2144ft 0kts
23-Jun-18 12:13 36.077835 -115.158164 38 2144ft 2kts
23-Jun-18 12:14 36.078035 -115.153744 90 2126ft 21kts
23-Jun-18 12:15 36.078189 -115.148295 21 2104ft 10kts
23-Jun-18 12:16 36.079520 -115.147672 338 2100ft 0kts
23-Jun-18 12:17 36.079922 -115.147122 58 2096ft 0kts
23-Jun-18 12:18 36.079922 -115.147122 58 2096ft 0kts
23-Jun-18 12:19 36.079922 -115.147122 58 2096ft 0kts

Navigation Log

Ident Type
Flight plan parsing failed, navigation log unavailable